Terminal Aerodrome Forecast
Issued by NWS Atlanta, GA

Home | Current Version | Previous Version | Text Only | Print | Product List | Glossary On
Versions: 1 2 3 4 5 6 7 8 9 10 11 12 13 14 15 16 17 18 19 20 21 22 23 24 25 26 27 28 29 30 31 32 33 34 35 36 37 38 39 40 41
000
FTUS42 KFFC 312336
TAFATL
TAF
KATL 312336Z 0100/0206 34008KT P6SM SCT050
      TEMPO 0100/0101 09015G30KT 3SM -SHRA BKN045
     FM010200 01005KT P6SM FEW250
     FM011600 05006KT P6SM FEW040
     FM012200 02008KT P6SM FEW250
     FM020300 35009KT P6SM SKC=

USA.gov is the U.S. government's official web portal to all federal, state and local government web resources and services.